sensor_id;sensor_type;location;lat;lon;timestamp;P1;durP1;ratioP1;P2;durP2;ratioP2
55328;SDS011;41205;44.264;19.884;2023-06-26T00:00:31;16.38;;;13.70;;
55328;SDS011;41205;44.264;19.884;2023-06-26T00:02:57;14.63;;;12.35;;
55328;SDS011;41205;44.264;19.884;2023-06-26T00:05:24;14.48;;;12.95;;
55328;SDS011;41205;44.264;19.884;2023-06-26T00:07:50;13.40;;;10.55;;
55328;SDS011;41205;44.264;19.884;2023-06-26T00:10:16;16.45;;;10.93;;
55328;SDS011;41205;44.264;19.884;2023-06-26T00:12:42;12.77;;;11.10;;
55328;SDS011;41205;44.264;19.884;2023-06-26T00:15:08;17.52;;;11.48;;
55328;SDS011;41205;44.264;19.884;2023-06-26T00:17:34;16.02;;;12.32;;
55328;SDS011;41205;44.264;19.884;2023-06-26T00:20:02;13.55;;;10.57;;
55328;SDS011;41205;44.264;19.884;2023-06-26T00:22:30;11.48;;;10.30;;
55328;SDS011;41205;44.264;19.884;2023-06-26T00:24:56;13.50;;;12.02;;
55328;SDS011;41205;44.264;19.884;2023-06-26T00:27:22;12.50;;;11.18;;
55328;SDS011;41205;44.264;19.884;2023-06-26T00:29:48;13.95;;;10.85;;
55328;SDS011;41205;44.264;19.884;2023-06-26T00:32:15;13.25;;;11.10;;
55328;SDS011;41205;44.264;19.884;2023-06-26T00:34:41;12.93;;;10.52;;
55328;SDS011;41205;44.264;19.884;2023-06-26T00:37:07;15.43;;;11.48;;
55328;SDS011;41205;44.264;19.884;2023-06-26T00:39:33;16.48;;;10.88;;
55328;SDS011;41205;44.264;19.884;2023-06-26T00:41:59;14.27;;;11.45;;
55328;SDS011;41205;44.264;19.884;2023-06-26T00:44:25;12.65;;;10.80;;
55328;SDS011;41205;44.264;19.884;2023-06-26T00:46:51;14.05;;;10.55;;
55328;SDS011;41205;44.264;19.884;2023-06-26T00:49:17;13.18;;;10.50;;
55328;SDS011;41205;44.264;19.884;2023-06-26T00:51:44;12.38;;;10.25;;
55328;SDS011;41205;44.264;19.884;2023-06-26T00:54:10;13.23;;;9.98;;
55328;SDS011;41205;44.264;19.884;2023-06-26T00:56:36;13.10;;;9.88;;
55328;SDS011;41205;44.264;19.884;2023-06-26T00:59:02;10.88;;;9.50;;
55328;SDS011;41205;44.264;19.884;2023-06-26T01:01:28;14.18;;;10.45;;
55328;SDS011;41205;44.264;19.884;2023-06-26T01:03:54;12.48;;;10.30;;
55328;SDS011;41205;44.264;19.884;2023-06-26T01:06:22;12.45;;;11.13;;
55328;SDS011;41205;44.264;19.884;2023-06-26T01:08:49;13.63;;;10.90;;
55328;SDS011;41205;44.264;19.884;2023-06-26T01:11:16;12.40;;;10.50;;
55328;SDS011;41205;44.264;19.884;2023-06-26T01:13:42;12.55;;;10.35;;
55328;SDS011;41205;44.264;19.884;2023-06-26T01:16:11;17.38;;;9.88;;
55328;SDS011;41205;44.264;19.884;2023-06-26T01:18:38;10.75;;;9.57;;
55328;SDS011;41205;44.264;19.884;2023-06-26T01:21:07;13.75;;;10.55;;
55328;SDS011;41205;44.264;19.884;2023-06-26T01:28:39;14.88;;;11.45;;
55328;SDS011;41205;44.264;19.884;2023-06-26T01:31:05;12.63;;;10.07;;
55328;SDS011;41205;44.264;19.884;2023-06-26T01:33:32;12.55;;;10.45;;
55328;SDS011;41205;44.264;19.884;2023-06-26T01:35:58;17.90;;;9.85;;
55328;SDS011;41205;44.264;19.884;2023-06-26T01:38:24;14.73;;;10.00;;
55328;SDS011;41205;44.264;19.884;2023-06-26T01:40:51;11.18;;;9.73;;
55328;SDS011;41205;44.264;19.884;2023-06-26T01:46:11;10.57;;;9.13;;
55328;SDS011;41205;44.264;19.884;2023-06-26T01:48:52;15.45;;;10.73;;
55328;SDS011;41205;44.264;19.884;2023-06-26T01:51:27;10.73;;;9.57;;
55328;SDS011;41205;44.264;19.884;2023-06-26T01:53:56;13.40;;;9.80;;
55328;SDS011;41205;44.264;19.884;2023-06-26T01:56:23;12.18;;;9.65;;
55328;SDS011;41205;44.264;19.884;2023-06-26T01:58:51;13.45;;;9.98;;
55328;SDS011;41205;44.264;19.884;2023-06-26T02:01:20;13.23;;;10.75;;
55328;SDS011;41205;44.264;19.884;2023-06-26T02:03:47;10.65;;;9.52;;
55328;SDS011;41205;44.264;19.884;2023-06-26T02:06:13;15.30;;;11.05;;
55328;SDS011;41205;44.264;19.884;2023-06-26T02:08:39;12.05;;;10.85;;
55328;SDS011;41205;44.264;19.884;2023-06-26T02:11:05;13.98;;;11.45;;
55328;SDS011;41205;44.264;19.884;2023-06-26T02:13:31;12.57;;;11.18;;
55328;SDS011;41205;44.264;19.884;2023-06-26T02:15:57;12.38;;;11.05;;
55328;SDS011;41205;44.264;19.884;2023-06-26T02:18:23;12.00;;;10.30;;
55328;SDS011;41205;44.264;19.884;2023-06-26T02:20:49;13.18;;;9.98;;
55328;SDS011;41205;44.264;19.884;2023-06-26T02:23:15;12.63;;;10.38;;
55328;SDS011;41205;44.264;19.884;2023-06-26T02:25:41;12.65;;;10.63;;
55328;SDS011;41205;44.264;19.884;2023-06-26T02:28:06;17.60;;;11.50;;
55328;SDS011;41205;44.264;19.884;2023-06-26T02:30:32;12.65;;;10.55;;
55328;SDS011;41205;44.264;19.884;2023-06-26T02:32:57;13.95;;;10.85;;
55328;SDS011;41205;44.264;19.884;2023-06-26T02:35:23;13.80;;;10.43;;
55328;SDS011;41205;44.264;19.884;2023-06-26T02:37:49;14.73;;;11.60;;
55328;SDS011;41205;44.264;19.884;2023-06-26T02:40:15;13.35;;;10.88;;
55328;SDS011;41205;44.264;19.884;2023-06-26T02:42:41;15.60;;;11.52;;
55328;SDS011;41205;44.264;19.884;2023-06-26T02:45:07;14.30;;;11.45;;
55328;SDS011;41205;44.264;19.884;2023-06-26T02:47:33;13.88;;;12.38;;
55328;SDS011;41205;44.264;19.884;2023-06-26T02:50:00;12.63;;;10.55;;
55328;SDS011;41205;44.264;19.884;2023-06-26T02:52:26;12.45;;;11.15;;
55328;SDS011;41205;44.264;19.884;2023-06-26T02:54:53;13.13;;;10.77;;
55328;SDS011;41205;44.264;19.884;2023-06-26T02:57:19;12.75;;;10.73;;
55328;SDS011;41205;44.264;19.884;2023-06-26T02:59:44;14.10;;;10.13;;
55328;SDS011;41205;44.264;19.884;2023-06-26T03:02:10;13.07;;;11.43;;
55328;SDS011;41205;44.264;19.884;2023-06-26T03:04:36;14.30;;;11.05;;
55328;SDS011;41205;44.264;19.884;2023-06-26T03:07:02;13.90;;;11.07;;
55328;SDS011;41205;44.264;19.884;2023-06-26T03:09:29;13.30;;;10.88;;
55328;SDS011;41205;44.264;19.884;2023-06-26T03:11:54;16.13;;;11.32;;
55328;SDS011;41205;44.264;19.884;2023-06-26T03:14:20;14.90;;;10.93;;
55328;SDS011;41205;44.264;19.884;2023-06-26T03:16:46;12.38;;;10.95;;
55328;SDS011;41205;44.264;19.884;2023-06-26T03:19:12;12.15;;;10.80;;
55328;SDS011;41205;44.264;19.884;2023-06-26T03:21:38;12.40;;;11.10;;
55328;SDS011;41205;44.264;19.884;2023-06-26T03:24:04;14.63;;;11.45;;
55328;SDS011;41205;44.264;19.884;2023-06-26T03:26:30;13.32;;;11.93;;
55328;SDS011;41205;44.264;19.884;2023-06-26T03:28:56;13.60;;;11.15;;
55328;SDS011;41205;44.264;19.884;2023-06-26T03:31:21;14.20;;;10.60;;
55328;SDS011;41205;44.264;19.884;2023-06-26T03:33:47;13.00;;;11.57;;
55328;SDS011;41205;44.264;19.884;2023-06-26T03:36:13;13.77;;;11.75;;
55328;SDS011;41205;44.264;19.884;2023-06-26T03:38:38;15.65;;;11.70;;
55328;SDS011;41205;44.264;19.884;2023-06-26T03:41:04;13.25;;;11.13;;
55328;SDS011;41205;44.264;19.884;2023-06-26T03:43:30;13.90;;;10.60;;
55328;SDS011;41205;44.264;19.884;2023-06-26T03:45:55;14.48;;;11.57;;
55328;SDS011;41205;44.264;19.884;2023-06-26T03:48:21;12.30;;;10.48;;
55328;SDS011;41205;44.264;19.884;2023-06-26T03:50:47;13.73;;;11.98;;
55328;SDS011;41205;44.264;19.884;2023-06-26T03:53:13;13.02;;;10.13;;
55328;SDS011;41205;44.264;19.884;2023-06-26T03:55:38;13.68;;;11.40;;
55328;SDS011;41205;44.264;19.884;2023-06-26T03:58:04;13.98;;;11.10;;
55328;SDS011;41205;44.264;19.884;2023-06-26T04:00:30;16.35;;;11.20;;
55328;SDS011;41205;44.264;19.884;2023-06-26T04:02:56;12.80;;;11.40;;
55328;SDS011;41205;44.264;19.884;2023-06-26T04:05:22;14.75;;;11.35;;
55328;SDS011;41205;44.264;19.884;2023-06-26T04:07:51;13.10;;;11.07;;
55328;SDS011;41205;44.264;19.884;2023-06-26T04:10:17;12.48;;;11.05;;
55328;SDS011;41205;44.264;19.884;2023-06-26T04:12:43;12.43;;;10.55;;
55328;SDS011;41205;44.264;19.884;2023-06-26T04:15:09;14.48;;;11.85;;
55328;SDS011;41205;44.264;19.884;2023-06-26T04:17:35;16.05;;;12.02;;
55328;SDS011;41205;44.264;19.884;2023-06-26T04:20:01;13.55;;;11.50;;
55328;SDS011;41205;44.264;19.884;2023-06-26T04:22:31;14.88;;;11.60;;
55328;SDS011;41205;44.264;19.884;2023-06-26T04:24:57;12.52;;;11.15;;
55328;SDS011;41205;44.264;19.884;2023-06-26T04:27:23;20.73;;;12.70;;
55328;SDS011;41205;44.264;19.884;2023-06-26T04:29:49;12.70;;;11.13;;
55328;SDS011;41205;44.264;19.884;2023-06-26T04:32:14;12.93;;;11.55;;
55328;SDS011;41205;44.264;19.884;2023-06-26T04:34:40;13.88;;;11.55;;
55328;SDS011;41205;44.264;19.884;2023-06-26T04:37:08;12.48;;;11.18;;
55328;SDS011;41205;44.264;19.884;2023-06-26T04:39:35;11.70;;;10.48;;
55328;SDS011;41205;44.264;19.884;2023-06-26T04:42:02;11.63;;;10.25;;
55328;SDS011;41205;44.264;19.884;2023-06-26T04:44:28;12.48;;;11.25;;
55328;SDS011;41205;44.264;19.884;2023-06-26T04:46:54;12.07;;;10.98;;
55328;SDS011;41205;44.264;19.884;2023-06-26T04:49:19;12.70;;;11.13;;
55328;SDS011;41205;44.264;19.884;2023-06-26T04:51:45;11.82;;;10.70;;
55328;SDS011;41205;44.264;19.884;2023-06-26T04:54:11;12.57;;;11.23;;
55328;SDS011;41205;44.264;19.884;2023-06-26T04:56:37;12.13;;;10.98;;
55328;SDS011;41205;44.264;19.884;2023-06-26T04:59:04;12.52;;;11.32;;
55328;SDS011;41205;44.264;19.884;2023-06-26T05:01:30;12.73;;;11.45;;
55328;SDS011;41205;44.264;19.884;2023-06-26T05:03:57;11.90;;;10.48;;
55328;SDS011;41205;44.264;19.884;2023-06-26T05:06:27;13.38;;;11.75;;
55328;SDS011;41205;44.264;19.884;2023-06-26T05:08:53;12.02;;;10.85;;
55328;SDS011;41205;44.264;19.884;2023-06-26T05:11:18;12.45;;;11.15;;
55328;SDS011;41205;44.264;19.884;2023-06-26T05:13:44;11.90;;;10.80;;
55328;SDS011;41205;44.264;19.884;2023-06-26T05:16:10;12.75;;;11.63;;
55328;SDS011;41205;44.264;19.884;2023-06-26T05:18:35;11.82;;;10.82;;
55328;SDS011;41205;44.264;19.884;2023-06-26T05:21:02;12.55;;;11.55;;
55328;SDS011;41205;44.264;19.884;2023-06-26T05:23:31;12.32;;;11.25;;
55328;SDS011;41205;44.264;19.884;2023-06-26T05:25:58;13.27;;;11.95;;
55328;SDS011;41205;44.264;19.884;2023-06-26T05:28:28;13.35;;;12.25;;
55328;SDS011;41205;44.264;19.884;2023-06-26T05:30:56;11.88;;;10.85;;
55328;SDS011;41205;44.264;19.884;2023-06-26T05:33:23;13.63;;;12.45;;
55328;SDS011;41205;44.264;19.884;2023-06-26T05:35:51;13.95;;;12.75;;
55328;SDS011;41205;44.264;19.884;2023-06-26T05:38:17;13.05;;;11.82;;
55328;SDS011;41205;44.264;19.884;2023-06-26T05:40:43;13.35;;;12.18;;
55328;SDS011;41205;44.264;19.884;2023-06-26T05:43:09;13.18;;;12.07;;
55328;SDS011;41205;44.264;19.884;2023-06-26T05:45:35;13.98;;;12.88;;
55328;SDS011;41205;44.264;19.884;2023-06-26T05:48:01;13.18;;;12.00;;
55328;SDS011;41205;44.264;19.884;2023-06-26T05:50:27;14.20;;;12.75;;
55328;SDS011;41205;44.264;19.884;2023-06-26T05:52:53;13.05;;;12.05;;
55328;SDS011;41205;44.264;19.884;2023-06-26T05:55:19;14.25;;;12.90;;
55328;SDS011;41205;44.264;19.884;2023-06-26T05:57:45;13.38;;;12.18;;
55328;SDS011;41205;44.264;19.884;2023-06-26T06:00:12;13.00;;;12.10;;
55328;SDS011;41205;44.264;19.884;2023-06-26T06:02:38;13.63;;;12.52;;
55328;SDS011;41205;44.264;19.884;2023-06-26T06:05:05;13.45;;;12.35;;
55328;SDS011;41205;44.264;19.884;2023-06-26T06:07:32;13.90;;;12.82;;
55328;SDS011;41205;44.264;19.884;2023-06-26T06:09:58;14.25;;;13.23;;
55328;SDS011;41205;44.264;19.884;2023-06-26T06:12:24;13.95;;;12.90;;
55328;SDS011;41205;44.264;19.884;2023-06-26T06:14:51;14.98;;;13.82;;
55328;SDS011;41205;44.264;19.884;2023-06-26T06:17:17;13.38;;;12.38;;
55328;SDS011;41205;44.264;19.884;2023-06-26T06:19:43;15.43;;;14.18;;
55328;SDS011;41205;44.264;19.884;2023-06-26T06:22:10;14.77;;;13.65;;
55328;SDS011;41205;44.264;19.884;2023-06-26T06:24:35;14.70;;;13.50;;
55328;SDS011;41205;44.264;19.884;2023-06-26T06:27:01;14.55;;;13.32;;
55328;SDS011;41205;44.264;19.884;2023-06-26T06:29:27;13.90;;;12.75;;
55328;SDS011;41205;44.264;19.884;2023-06-26T06:31:53;14.20;;;13.00;;
55328;SDS011;41205;44.264;19.884;2023-06-26T06:34:18;13.07;;;12.07;;
55328;SDS011;41205;44.264;19.884;2023-06-26T06:36:44;16.05;;;14.95;;
55328;SDS011;41205;44.264;19.884;2023-06-26T06:39:10;14.85;;;13.77;;
55328;SDS011;41205;44.264;19.884;2023-06-26T06:41:35;14.73;;;13.63;;
55328;SDS011;41205;44.264;19.884;2023-06-26T06:44:01;13.45;;;12.55;;
55328;SDS011;41205;44.264;19.884;2023-06-26T06:46:27;14.05;;;13.05;;
55328;SDS011;41205;44.264;19.884;2023-06-26T06:48:53;14.23;;;13.13;;
55328;SDS011;41205;44.264;19.884;2023-06-26T06:51:19;15.10;;;14.00;;
55328;SDS011;41205;44.264;19.884;2023-06-26T06:53:44;14.20;;;13.10;;
55328;SDS011;41205;44.264;19.884;2023-06-26T06:56:10;14.65;;;13.60;;
55328;SDS011;41205;44.264;19.884;2023-06-26T06:58:36;15.18;;;14.13;;
55328;SDS011;41205;44.264;19.884;2023-06-26T07:01:01;13.45;;;12.55;;
55328;SDS011;41205;44.264;19.884;2023-06-26T07:03:28;14.63;;;13.63;;
55328;SDS011;41205;44.264;19.884;2023-06-26T07:05:54;15.25;;;13.90;;
55328;SDS011;41205;44.264;19.884;2023-06-26T07:08:21;13.98;;;12.27;;
55328;SDS011;41205;44.264;19.884;2023-06-26T07:10:46;14.00;;;13.10;;
55328;SDS011;41205;44.264;19.884;2023-06-26T07:13:12;13.32;;;12.35;;
55328;SDS011;41205;44.264;19.884;2023-06-26T07:15:38;14.85;;;13.82;;
55328;SDS011;41205;44.264;19.884;2023-06-26T07:18:04;14.15;;;13.15;;
55328;SDS011;41205;44.264;19.884;2023-06-26T07:20:29;14.85;;;13.95;;
55328;SDS011;41205;44.264;19.884;2023-06-26T07:22:55;16.92;;;14.45;;
55328;SDS011;41205;44.264;19.884;2023-06-26T07:25:21;14.57;;;13.57;;
55328;SDS011;41205;44.264;19.884;2023-06-26T07:27:46;11.57;;;10.57;;
55328;SDS011;41205;44.264;19.884;2023-06-26T07:30:12;14.80;;;13.75;;
55328;SDS011;41205;44.264;19.884;2023-06-26T07:32:38;14.40;;;13.40;;
55328;SDS011;41205;44.264;19.884;2023-06-26T07:35:05;15.32;;;14.43;;
55328;SDS011;41205;44.264;19.884;2023-06-26T07:37:31;15.35;;;14.20;;
55328;SDS011;41205;44.264;19.884;2023-06-26T07:39:57;14.98;;;13.98;;
55328;SDS011;41205;44.264;19.884;2023-06-26T07:42:23;15.40;;;14.30;;
55328;SDS011;41205;44.264;19.884;2023-06-26T07:44:48;14.73;;;13.73;;
55328;SDS011;41205;44.264;19.884;2023-06-26T07:47:14;13.65;;;12.40;;
55328;SDS011;41205;44.264;19.884;2023-06-26T07:49:40;13.00;;;12.10;;
55328;SDS011;41205;44.264;19.884;2023-06-26T07:52:06;13.63;;;12.48;;
55328;SDS011;41205;44.264;19.884;2023-06-26T07:54:35;11.93;;;10.88;;
55328;SDS011;41205;44.264;19.884;2023-06-26T07:57:01;10.27;;;9.48;;
55328;SDS011;41205;44.264;19.884;2023-06-26T07:59:29;9.43;;;8.73;;
55328;SDS011;41205;44.264;19.884;2023-06-26T08:01:56;13.55;;;12.45;;
55328;SDS011;41205;44.264;19.884;2023-06-26T08:04:26;12.50;;;11.50;;
55328;SDS011;41205;44.264;19.884;2023-06-26T08:06:54;10.05;;;9.15;;
55328;SDS011;41205;44.264;19.884;2023-06-26T08:09:22;9.45;;;8.68;;
55328;SDS011;41205;44.264;19.884;2023-06-26T08:11:49;8.98;;;8.25;;
55328;SDS011;41205;44.264;19.884;2023-06-26T08:14:15;9.80;;;9.00;;
55328;SDS011;41205;44.264;19.884;2023-06-26T08:16:42;9.63;;;8.82;;
55328;SDS011;41205;44.264;19.884;2023-06-26T08:19:11;9.93;;;8.90;;
55328;SDS011;41205;44.264;19.884;2023-06-26T08:21:38;10.43;;;9.48;;
55328;SDS011;41205;44.264;19.884;2023-06-26T08:24:04;10.55;;;9.55;;
55328;SDS011;41205;44.264;19.884;2023-06-26T08:26:30;10.93;;;8.68;;
55328;SDS011;41205;44.264;19.884;2023-06-26T08:28:56;10.13;;;9.18;;
55328;SDS011;41205;44.264;19.884;2023-06-26T08:31:21;8.77;;;7.97;;
55328;SDS011;41205;44.264;19.884;2023-06-26T08:33:47;9.63;;;8.82;;
55328;SDS011;41205;44.264;19.884;2023-06-26T08:36:13;9.23;;;8.32;;
55328;SDS011;41205;44.264;19.884;2023-06-26T08:38:38;10.25;;;9.25;;
55328;SDS011;41205;44.264;19.884;2023-06-26T08:41:07;9.68;;;8.70;;
55328;SDS011;41205;44.264;19.884;2023-06-26T08:43:34;9.68;;;8.70;;
55328;SDS011;41205;44.264;19.884;2023-06-26T08:46:00;8.32;;;7.55;;
55328;SDS011;41205;44.264;19.884;2023-06-26T08:48:27;9.38;;;8.40;;
55328;SDS011;41205;44.264;19.884;2023-06-26T08:50:56;9.45;;;8.55;;
55328;SDS011;41205;44.264;19.884;2023-06-26T08:55:59;9.68;;;8.60;;
55328;SDS011;41205;44.264;19.884;2023-06-26T08:58:25;9.02;;;8.23;;
55328;SDS011;41205;44.264;19.884;2023-06-26T09:00:51;8.00;;;6.82;;
55328;SDS011;41205;44.264;19.884;2023-06-26T09:03:18;11.52;;;8.18;;
55328;SDS011;41205;44.264;19.884;2023-06-26T09:05:44;8.75;;;7.85;;
55328;SDS011;41205;44.264;19.884;2023-06-26T09:08:10;18.33;;;11.75;;
55328;SDS011;41205;44.264;19.884;2023-06-26T09:10:36;8.77;;;7.93;;
55328;SDS011;41205;44.264;19.884;2023-06-26T09:13:02;8.73;;;7.47;;
55328;SDS011;41205;44.264;19.884;2023-06-26T09:15:36;7.45;;;6.75;;
55328;SDS011;41205;44.264;19.884;2023-06-26T09:18:04;9.95;;;7.60;;
55328;SDS011;41205;44.264;19.884;2023-06-26T09:20:30;8.43;;;7.53;;
55328;SDS011;41205;44.264;19.884;2023-06-26T09:22:58;9.18;;;7.28;;
55328;SDS011;41205;44.264;19.884;2023-06-26T09:25:25;8.82;;;7.43;;
55328;SDS011;41205;44.264;19.884;2023-06-26T09:27:51;9.02;;;7.82;;
55328;SDS011;41205;44.264;19.884;2023-06-26T09:30:18;8.32;;;7.07;;
55328;SDS011;41205;44.264;19.884;2023-06-26T09:32:44;7.30;;;6.60;;
55328;SDS011;41205;44.264;19.884;2023-06-26T09:35:10;7.93;;;7.20;;
55328;SDS011;41205;44.264;19.884;2023-06-26T09:37:36;8.65;;;7.65;;
55328;SDS011;41205;44.264;19.884;2023-06-26T09:40:02;8.85;;;7.95;;
55328;SDS011;41205;44.264;19.884;2023-06-26T09:42:33;8.27;;;7.00;;
55328;SDS011;41205;44.264;19.884;2023-06-26T09:44:59;9.93;;;7.03;;
55328;SDS011;41205;44.264;19.884;2023-06-26T09:47:25;8.90;;;7.68;;
55328;SDS011;41205;44.264;19.884;2023-06-26T09:49:50;8.25;;;7.45;;
55328;SDS011;41205;44.264;19.884;2023-06-26T09:52:18;8.13;;;7.32;;
55328;SDS011;41205;44.264;19.884;2023-06-26T09:54:45;8.15;;;6.93;;
55328;SDS011;41205;44.264;19.884;2023-06-26T09:57:11;8.35;;;7.30;;
55328;SDS011;41205;44.264;19.884;2023-06-26T09:59:38;9.32;;;7.20;;
55328;SDS011;41205;44.264;19.884;2023-06-26T10:02:09;7.68;;;6.90;;
55328;SDS011;41205;44.264;19.884;2023-06-26T10:04:36;7.68;;;6.93;;
55328;SDS011;41205;44.264;19.884;2023-06-26T10:07:04;8.40;;;6.85;;
55328;SDS011;41205;44.264;19.884;2023-06-26T10:09:31;8.38;;;7.10;;
55328;SDS011;41205;44.264;19.884;2023-06-26T10:12:06;7.95;;;7.25;;
55328;SDS011;41205;44.264;19.884;2023-06-26T10:14:35;8.32;;;7.07;;
55328;SDS011;41205;44.264;19.884;2023-06-26T10:17:06;7.90;;;6.68;;
55328;SDS011;41205;44.264;19.884;2023-06-26T10:19:35;7.72;;;6.88;;
55328;SDS011;41205;44.264;19.884;2023-06-26T10:22:03;9.00;;;8.10;;
55328;SDS011;41205;44.264;19.884;2023-06-26T10:24:31;7.85;;;6.65;;
55328;SDS011;41205;44.264;19.884;2023-06-26T10:26:59;8.38;;;7.30;;
55328;SDS011;41205;44.264;19.884;2023-06-26T10:29:30;9.98;;;7.25;;
55328;SDS011;41205;44.264;19.884;2023-06-26T10:31:57;7.10;;;6.40;;
55328;SDS011;41205;44.264;19.884;2023-06-26T10:34:25;6.88;;;6.15;;
55328;SDS011;41205;44.264;19.884;2023-06-26T10:37:00;8.57;;;6.57;;
55328;SDS011;41205;44.264;19.884;2023-06-26T10:39:32;9.13;;;6.03;;
55328;SDS011;41205;44.264;19.884;2023-06-26T10:42:10;7.05;;;6.35;;
55328;SDS011;41205;44.264;19.884;2023-06-26T10:44:40;7.35;;;6.40;;
55328;SDS011;41205;44.264;19.884;2023-06-26T10:47:07;7.32;;;6.63;;
55328;SDS011;41205;44.264;19.884;2023-06-26T10:49:34;11.05;;;6.53;;
55328;SDS011;41205;44.264;19.884;2023-06-26T10:52:01;7.22;;;6.47;;
55328;SDS011;41205;44.264;19.884;2023-06-26T10:54:31;7.68;;;6.32;;
55328;SDS011;41205;44.264;19.884;2023-06-26T10:56:57;8.50;;;7.38;;
55328;SDS011;41205;44.264;19.884;2023-06-26T10:59:24;7.85;;;6.65;;
55328;SDS011;41205;44.264;19.884;2023-06-26T11:01:57;7.95;;;6.80;;
55328;SDS011;41205;44.264;19.884;2023-06-26T11:04:39;6.30;;;5.70;;
55328;SDS011;41205;44.264;19.884;2023-06-26T11:12:39;8.07;;;6.13;;
55328;SDS011;41205;44.264;19.884;2023-06-26T11:15:10;6.05;;;5.45;;
55328;SDS011;41205;44.264;19.884;2023-06-26T11:17:37;6.78;;;6.07;;
55328;SDS011;41205;44.264;19.884;2023-06-26T11:20:05;8.43;;;6.55;;
55328;SDS011;41205;44.264;19.884;2023-06-26T11:22:33;7.95;;;6.05;;
55328;SDS011;41205;44.264;19.884;2023-06-26T11:25:00;7.43;;;6.35;;
55328;SDS011;41205;44.264;19.884;2023-06-26T11:30:02;6.88;;;6.18;;
55328;SDS011;41205;44.264;19.884;2023-06-26T11:32:29;7.10;;;6.18;;
55328;SDS011;41205;44.264;19.884;2023-06-26T11:34:55;7.80;;;6.47;;
55328;SDS011;41205;44.264;19.884;2023-06-26T11:37:21;8.35;;;6.18;;
55328;SDS011;41205;44.264;19.884;2023-06-26T11:39:48;7.80;;;6.70;;
55328;SDS011;41205;44.264;19.884;2023-06-26T11:42:13;8.05;;;6.60;;
55328;SDS011;41205;44.264;19.884;2023-06-26T11:44:39;15.32;;;7.40;;
55328;SDS011;41205;44.264;19.884;2023-06-26T11:47:07;8.32;;;6.25;;
55328;SDS011;41205;44.264;19.884;2023-06-26T11:49:33;6.43;;;5.82;;
55328;SDS011;41205;44.264;19.884;2023-06-26T11:51:58;9.20;;;6.35;;
55328;SDS011;41205;44.264;19.884;2023-06-26T11:54:25;6.22;;;5.60;;
55328;SDS011;41205;44.264;19.884;2023-06-26T11:56:52;7.47;;;6.10;;
55328;SDS011;41205;44.264;19.884;2023-06-26T11:59:22;7.88;;;6.05;;
55328;SDS011;41205;44.264;19.884;2023-06-26T12:01:49;7.90;;;6.93;;
55328;SDS011;41205;44.264;19.884;2023-06-26T12:04:16;7.20;;;6.50;;
55328;SDS011;41205;44.264;19.884;2023-06-26T12:06:48;8.88;;;6.20;;
55328;SDS011;41205;44.264;19.884;2023-06-26T12:09:16;9.65;;;6.38;;
55328;SDS011;41205;44.264;19.884;2023-06-26T12:11:44;6.13;;;5.53;;
55328;SDS011;41205;44.264;19.884;2023-06-26T12:14:13;12.40;;;6.00;;
55328;SDS011;41205;44.264;19.884;2023-06-26T12:16:40;11.38;;;6.18;;
55328;SDS011;41205;44.264;19.884;2023-06-26T12:19:06;9.35;;;6.15;;
55328;SDS011;41205;44.264;19.884;2023-06-26T12:24:21;6.80;;;6.10;;
55328;SDS011;41205;44.264;19.884;2023-06-26T12:26:52;6.55;;;5.93;;
55328;SDS011;41205;44.264;19.884;2023-06-26T12:29:24;7.72;;;5.97;;
55328;SDS011;41205;44.264;19.884;2023-06-26T12:31:56;6.72;;;5.88;;
55328;SDS011;41205;44.264;19.884;2023-06-26T12:37:02;8.25;;;6.20;;
55328;SDS011;41205;44.264;19.884;2023-06-26T12:39:45;8.80;;;7.25;;
55328;SDS011;41205;44.264;19.884;2023-06-26T12:42:15;10.07;;;5.80;;
55328;SDS011;41205;44.264;19.884;2023-06-26T12:44:42;6.47;;;5.82;;
55328;SDS011;41205;44.264;19.884;2023-06-26T12:47:08;7.18;;;6.47;;
55328;SDS011;41205;44.264;19.884;2023-06-26T12:49:38;6.80;;;6.10;;
55328;SDS011;41205;44.264;19.884;2023-06-26T12:52:05;6.55;;;5.82;;
55328;SDS011;41205;44.264;19.884;2023-06-26T12:54:33;7.28;;;5.78;;
55328;SDS011;41205;44.264;19.884;2023-06-26T12:56:59;8.02;;;6.32;;
55328;SDS011;41205;44.264;19.884;2023-06-26T12:59:25;6.97;;;6.28;;
55328;SDS011;41205;44.264;19.884;2023-06-26T13:01:51;8.48;;;5.72;;
55328;SDS011;41205;44.264;19.884;2023-06-26T13:04:17;8.88;;;5.20;;
55328;SDS011;41205;44.264;19.884;2023-06-26T13:06:43;8.90;;;5.68;;
55328;SDS011;41205;44.264;19.884;2023-06-26T13:09:08;6.45;;;5.85;;
55328;SDS011;41205;44.264;19.884;2023-06-26T13:11:35;7.72;;;6.05;;
55328;SDS011;41205;44.264;19.884;2023-06-26T13:14:02;8.40;;;6.00;;
55328;SDS011;41205;44.264;19.884;2023-06-26T13:16:28;7.10;;;5.75;;
55328;SDS011;41205;44.264;19.884;2023-06-26T13:18:54;7.57;;;6.35;;
55328;SDS011;41205;44.264;19.884;2023-06-26T13:21:21;10.00;;;6.35;;
55328;SDS011;41205;44.264;19.884;2023-06-26T13:23:47;6.25;;;5.65;;
55328;SDS011;41205;44.264;19.884;2023-06-26T13:26:12;7.30;;;6.53;;
55328;SDS011;41205;44.264;19.884;2023-06-26T13:28:38;7.85;;;5.68;;
55328;SDS011;41205;44.264;19.884;2023-06-26T13:31:04;10.95;;;6.40;;
55328;SDS011;41205;44.264;19.884;2023-06-26T13:33:30;7.60;;;6.35;;
55328;SDS011;41205;44.264;19.884;2023-06-26T13:35:56;9.68;;;5.28;;
55328;SDS011;41205;44.264;19.884;2023-06-26T13:38:22;7.00;;;5.75;;
55328;SDS011;41205;44.264;19.884;2023-06-26T13:40:58;7.07;;;5.88;;
55328;SDS011;41205;44.264;19.884;2023-06-26T13:43:26;6.95;;;6.00;;
55328;SDS011;41205;44.264;19.884;2023-06-26T13:45:52;8.48;;;5.57;;
55328;SDS011;41205;44.264;19.884;2023-06-26T13:48:18;7.50;;;5.20;;
55328;SDS011;41205;44.264;19.884;2023-06-26T13:50:45;9.55;;;6.50;;
55328;SDS011;41205;44.264;19.884;2023-06-26T13:53:11;8.43;;;6.50;;
55328;SDS011;41205;44.264;19.884;2023-06-26T13:55:37;9.65;;;7.35;;
55328;SDS011;41205;44.264;19.884;2023-06-26T13:58:06;6.88;;;6.00;;
55328;SDS011;41205;44.264;19.884;2023-06-26T14:00:33;8.05;;;6.45;;
55328;SDS011;41205;44.264;19.884;2023-06-26T14:03:00;6.95;;;5.78;;
55328;SDS011;41205;44.264;19.884;2023-06-26T14:05:28;7.53;;;5.75;;
55328;SDS011;41205;44.264;19.884;2023-06-26T14:07:56;11.05;;;6.75;;
55328;SDS011;41205;44.264;19.884;2023-06-26T14:10:22;6.65;;;5.95;;
55328;SDS011;41205;44.264;19.884;2023-06-26T14:12:49;6.68;;;6.07;;
55328;SDS011;41205;44.264;19.884;2023-06-26T14:15:15;7.88;;;6.63;;
55328;SDS011;41205;44.264;19.884;2023-06-26T14:17:41;7.72;;;6.07;;
55328;SDS011;41205;44.264;19.884;2023-06-26T14:20:09;6.65;;;6.00;;
55328;SDS011;41205;44.264;19.884;2023-06-26T14:22:38;9.23;;;6.40;;
55328;SDS011;41205;44.264;19.884;2023-06-26T14:25:04;6.55;;;5.57;;
55328;SDS011;41205;44.264;19.884;2023-06-26T14:27:31;7.32;;;6.35;;
55328;SDS011;41205;44.264;19.884;2023-06-26T14:29:57;8.38;;;6.18;;
55328;SDS011;41205;44.264;19.884;2023-06-26T14:32:22;7.00;;;6.30;;
55328;SDS011;41205;44.264;19.884;2023-06-26T14:34:48;9.55;;;5.88;;
55328;SDS011;41205;44.264;19.884;2023-06-26T14:37:13;7.60;;;5.85;;
55328;SDS011;41205;44.264;19.884;2023-06-26T14:39:39;6.10;;;5.47;;
55328;SDS011;41205;44.264;19.884;2023-06-26T14:42:05;7.00;;;6.28;;